CheckWX is a tool to help pilots better visualize weather data.  It is not intended as a substitute for an official pre-flight weather briefing.

04:38:43 UTC

KSIK METAR
Sikeston Memorial Municipal Airport
Sikeston, Missouri, USA
Current

24 mins ago

KSIK 170415Z AUTO 00000KT 10SM CLR 25/21 A3003 RMK AO2
Observed
Sep-17 @ 04:15 UTC
Visibility
10 SM
Flight Rules
VFR
Cloud Levels
  • Clear skies
Temperature
25°C / 77°F
Dewpoint
21°C / 70°F
Humidity
79%
Altimeter
30.03" Hg
Pressure
1016.92 hPa
Previous

44 mins ago

KSIK 170355Z AUTO 00000KT 10SM CLR 25/21 A3003 RMK AO2
Observed
Sep-17 @ 03:55 UTC
Visibility
10 SM
Flight Rules
VFR
Cloud Levels
  • Clear skies
Temperature
25°C / 77°F
Dewpoint
21°C / 70°F
Humidity
79%
Altimeter
30.03" Hg
Pressure
1016.92 hPa
Previous

1 hour ago

KSIK 170335Z AUTO 00000KT 10SM CLR 25/21 A3003 RMK AO2
Observed
Sep-17 @ 03:35 UTC
Visibility
10 SM
Flight Rules
VFR
Cloud Levels
  • Clear skies
Temperature
25°C / 77°F
Dewpoint
21°C / 70°F
Humidity
79%
Altimeter
30.03" Hg
Pressure
1016.92 hPa